METAR Data

Data at: 1845 UTC 21 Nov 2018

METAR for:KUUU (Newport State Arpt, RI, US)
Text:KUUU 211753Z AUTO 26009G17KT 200V280 10SM BKN110 05/M04 A2992 RMK AO2 SLP130 T00501039 10050 20011 56032
Temperature: 5.0°C ( 41°F)
Dewpoint: -3.9°C ( 25°F) [RH = 52%]
Pressure (altimeter):29.92 inches Hg (1013.3 mb) [Sea level pressure: 1013.0 mb]
Winds:from the W (260 degrees) at 10 MPH (9 knots; 4.6 m/s) gusting to 20 MPH (17 knots; 8.7 m/s)
Visibility:10 or more sm (16+ km)
Ceiling:11000 feet AGL
Clouds: broken clouds at 11000 feet AGL
QC Flag:automated observation with no human augmentation